Pampa, TX (79065)

9:52 PM CST on February 10, 2016 (GMT -0600)
WT_Meso | | Change Station
CLOSE
Current Station
Personal Weather Station
Location: Pampa, TX
Elevation: 3215 ft
Nearby Weather Stations

Elev 3215 ft 35.54 °N, 100.93 °W | Updated 37 minutes ago

Clear
Clear
57 °F
Feels Like 57 °F
N
7
Wind Variable Wind from WSW
Gusts 8.0 mph

Today
High -- | Low -- °F
--% Chance of Precip.
Yesterday
High -- | Low -- °F
Precip. -- in
Pressure 30.05 in
Visibility 10.0 miles
Clouds Clear
Dew Point 13 °F
Humidity 18%
Rainfall in
Snow Depth Not available.
7:36 AM 6:20 PM
Waxing Crescent, 9% visible
METAR KPPA 110335Z AUTO 27005KT 10SM CLR 16/M12 A3005 RMK AO2 T01611123
Pressure 30.05 in
Visibility 10.0 miles
Clouds Clear
Dew Point 13 °F
Humidity 18%
Rainfall in
Snow Depth Not available.
7:36 AM 6:20 PM
Waxing Crescent, 9% visible
METAR KPPA 110335Z AUTO 27005KT 10SM CLR 16/M12 A3005 RMK AO2 T01611123

10-Day Weather Forecast

Almanac

Astronomy

Feb. 10, 2016 Rise Set
Actual Time
Civil Twilight
Nautical Twilight
Astronomical Twilight
Moon
Length of Visible Light
Length of Day
Tomorrow will be .
, % of the Moon is Illuminated

Today's Extremes

State Highs State Lows

Community

WunderPhotos

Upload Photos

1,892,000 photos uploaded!

WunderBlog® & News

Nearby

Air Quality

  Air Quality AQ Index Pollutant
Not available.

Snow Depth

Station Depth Elevation

Earthquake Activity

City Distance Mag. Time & Date
Minimum magnitude displayed is 2.5.

Coastal Water Temperatures

Place Temperature

Stations

Nearby Weather Stations

Station Location Temp. Windchill Dew Point Humidity Wind Precip. Elev Updated Type
                   

Watches & Warnings

There are currently no watches in effect.